sensor_id;sensor_type;location;lat;lon;timestamp;temperature;humidity
14401;DHT22;7285;50.894;5.462;2023-07-13T00:01:58;15.30;1.00
14401;DHT22;7285;50.894;5.462;2023-07-13T00:04:52;15.20;1.00
14401;DHT22;7285;50.894;5.462;2023-07-13T00:07:19;15.20;8.70
14401;DHT22;7285;50.894;5.462;2023-07-13T00:09:59;15.10;96.60
14401;DHT22;7285;50.894;5.462;2023-07-13T00:12:29;15.10;99.90
14401;DHT22;7285;50.894;5.462;2023-07-13T00:14:57;15.00;99.90
14401;DHT22;7285;50.894;5.462;2023-07-13T00:17:26;15.00;99.90
14401;DHT22;7285;50.894;5.462;2023-07-13T00:19:54;14.90;99.90
14401;DHT22;7285;50.894;5.462;2023-07-13T00:22:23;14.80;99.90
14401;DHT22;7285;50.894;5.462;2023-07-13T00:24:51;14.80;99.90
14401;DHT22;7285;50.894;5.462;2023-07-13T00:27:21;14.80;99.90
14401;DHT22;7285;50.894;5.462;2023-07-13T00:29:49;14.80;99.90
14401;DHT22;7285;50.894;5.462;2023-07-13T00:32:16;14.80;99.90
14401;DHT22;7285;50.894;5.462;2023-07-13T00:34:44;14.80;99.90
14401;DHT22;7285;50.894;5.462;2023-07-13T00:37:12;14.70;99.90
14401;DHT22;7285;50.894;5.462;2023-07-13T00:39:40;14.60;99.90
14401;DHT22;7285;50.894;5.462;2023-07-13T00:42:15;14.60;99.90
14401;DHT22;7285;50.894;5.462;2023-07-13T00:45:05;14.50;99.90
14401;DHT22;7285;50.894;5.462;2023-07-13T00:47:32;14.50;1.00
14401;DHT22;7285;50.894;5.462;2023-07-13T00:50:00;14.50;1.00
14401;DHT22;7285;50.894;5.462;2023-07-13T00:52:30;14.50;1.00
14401;DHT22;7285;50.894;5.462;2023-07-13T00:55:01;14.50;1.00
14401;DHT22;7285;50.894;5.462;2023-07-13T00:57:28;14.50;1.00
14401;DHT22;7285;50.894;5.462;2023-07-13T00:59:58;14.50;1.00
14401;DHT22;7285;50.894;5.462;2023-07-13T01:02:27;14.50;1.00
14401;DHT22;7285;50.894;5.462;2023-07-13T01:04:56;14.40;1.00
14401;DHT22;7285;50.894;5.462;2023-07-13T01:07:23;14.40;1.00
14401;DHT22;7285;50.894;5.462;2023-07-13T01:09:51;14.40;1.00
14401;DHT22;7285;50.894;5.462;2023-07-13T01:12:18;14.40;1.00
14401;DHT22;7285;50.894;5.462;2023-07-13T01:18:04;14.40;1.00
14401;DHT22;7285;50.894;5.462;2023-07-13T01:20:39;14.30;1.00
14401;DHT22;7285;50.894;5.462;2023-07-13T01:23:29;14.30;1.00
14401;DHT22;7285;50.894;5.462;2023-07-13T01:25:57;14.20;1.00
14401;DHT22;7285;50.894;5.462;2023-07-13T01:28:25;14.20;7.90
14401;DHT22;7285;50.894;5.462;2023-07-13T01:30:54;14.20;21.20
14401;DHT22;7285;50.894;5.462;2023-07-13T01:33:22;14.20;46.20
14401;DHT22;7285;50.894;5.462;2023-07-13T01:35:50;14.20;73.30
14401;DHT22;7285;50.894;5.462;2023-07-13T01:38:28;14.20;99.90
14401;DHT22;7285;50.894;5.462;2023-07-13T01:41:01;14.20;99.90
14401;DHT22;7285;50.894;5.462;2023-07-13T01:43:36;14.10;99.90
14401;DHT22;7285;50.894;5.462;2023-07-13T01:46:03;14.10;99.90
14401;DHT22;7285;50.894;5.462;2023-07-13T01:48:30;14.10;99.90
14401;DHT22;7285;50.894;5.462;2023-07-13T01:50:58;14.10;99.90
14401;DHT22;7285;50.894;5.462;2023-07-13T01:53:25;14.10;99.90
14401;DHT22;7285;50.894;5.462;2023-07-13T01:55:53;14.10;99.90
14401;DHT22;7285;50.894;5.462;2023-07-13T01:58:20;14.10;99.90
14401;DHT22;7285;50.894;5.462;2023-07-13T02:00:48;14.10;99.90
14401;DHT22;7285;50.894;5.462;2023-07-13T02:06:40;14.10;1.00
14401;DHT22;7285;50.894;5.462;2023-07-13T02:09:14;14.00;1.00
14401;DHT22;7285;50.894;5.462;2023-07-13T02:11:57;13.90;1.00
14401;DHT22;7285;50.894;5.462;2023-07-13T02:14:24;13.90;1.00
14401;DHT22;7285;50.894;5.462;2023-07-13T02:16:51;13.80;1.00
14401;DHT22;7285;50.894;5.462;2023-07-13T02:19:18;13.80;1.00
14401;DHT22;7285;50.894;5.462;2023-07-13T02:21:45;13.70;1.00
14401;DHT22;7285;50.894;5.462;2023-07-13T02:24:45;13.70;1.00
14401;DHT22;7285;50.894;5.462;2023-07-13T02:27:14;13.70;1.00
14401;DHT22;7285;50.894;5.462;2023-07-13T02:29:49;13.70;1.00
14401;DHT22;7285;50.894;5.462;2023-07-13T02:32:17;13.60;55.30
14401;DHT22;7285;50.894;5.462;2023-07-13T02:34:44;13.60;99.90
14401;DHT22;7285;50.894;5.462;2023-07-13T02:40:24;13.60;99.90
14401;DHT22;7285;50.894;5.462;2023-07-13T02:42:53;13.50;99.90
14401;DHT22;7285;50.894;5.462;2023-07-13T02:45:20;13.50;99.90
14401;DHT22;7285;50.894;5.462;2023-07-13T02:47:47;13.50;1.00
14401;DHT22;7285;50.894;5.462;2023-07-13T02:50:14;13.50;1.00
14401;DHT22;7285;50.894;5.462;2023-07-13T02:52:47;13.40;1.00
14401;DHT22;7285;50.894;5.462;2023-07-13T02:55:14;13.40;1.00
14401;DHT22;7285;50.894;5.462;2023-07-13T02:57:41;13.40;1.00
14401;DHT22;7285;50.894;5.462;2023-07-13T03:00:11;13.40;1.00
14401;DHT22;7285;50.894;5.462;2023-07-13T03:02:38;13.30;1.00
14401;DHT22;7285;50.894;5.462;2023-07-13T03:05:06;13.30;1.00
14401;DHT22;7285;50.894;5.462;2023-07-13T03:07:33;13.30;99.90
14401;DHT22;7285;50.894;5.462;2023-07-13T03:10:00;13.30;99.90
14401;DHT22;7285;50.894;5.462;2023-07-13T03:12:27;13.20;99.90
14401;DHT22;7285;50.894;5.462;2023-07-13T03:15:00;13.20;99.90
14401;DHT22;7285;50.894;5.462;2023-07-13T03:17:29;13.20;1.00
14401;DHT22;7285;50.894;5.462;2023-07-13T03:19:57;13.20;1.00
14401;DHT22;7285;50.894;5.462;2023-07-13T03:22:24;13.20;1.00
14401;DHT22;7285;50.894;5.462;2023-07-13T03:24:51;13.30;1.00
14401;DHT22;7285;50.894;5.462;2023-07-13T03:27:18;13.30;79.00
14401;DHT22;7285;50.894;5.462;2023-07-13T03:29:46;13.30;99.90
14401;DHT22;7285;50.894;5.462;2023-07-13T03:32:13;13.30;99.90
14401;DHT22;7285;50.894;5.462;2023-07-13T03:34:41;13.30;99.90
14401;DHT22;7285;50.894;5.462;2023-07-13T03:37:08;13.40;99.90
14401;DHT22;7285;50.894;5.462;2023-07-13T03:39:36;13.40;99.90
14401;DHT22;7285;50.894;5.462;2023-07-13T03:42:04;13.40;1.00
14401;DHT22;7285;50.894;5.462;2023-07-13T03:44:32;13.40;1.00
14401;DHT22;7285;50.894;5.462;2023-07-13T03:46:59;13.40;1.00
14401;DHT22;7285;50.894;5.462;2023-07-13T03:49:27;13.50;1.00
14401;DHT22;7285;50.894;5.462;2023-07-13T03:51:56;13.50;1.00
14401;DHT22;7285;50.894;5.462;2023-07-13T03:54:23;13.50;1.00
14401;DHT22;7285;50.894;5.462;2023-07-13T03:56:52;13.60;1.00
14401;DHT22;7285;50.894;5.462;2023-07-13T03:59:19;13.60;1.00
14401;DHT22;7285;50.894;5.462;2023-07-13T04:01:47;13.60;1.00
14401;DHT22;7285;50.894;5.462;2023-07-13T04:04:18;13.70;1.00
14401;DHT22;7285;50.894;5.462;2023-07-13T04:06:45;13.70;1.00
14401;DHT22;7285;50.894;5.462;2023-07-13T04:09:16;13.70;1.00
14401;DHT22;7285;50.894;5.462;2023-07-13T04:11:46;13.70;1.00
14401;DHT22;7285;50.894;5.462;2023-07-13T04:14:13;13.80;1.00
14401;DHT22;7285;50.894;5.462;2023-07-13T04:16:40;13.80;1.00
14401;DHT22;7285;50.894;5.462;2023-07-13T04:19:08;13.80;1.00
14401;DHT22;7285;50.894;5.462;2023-07-13T04:21:36;13.90;1.00
14401;DHT22;7285;50.894;5.462;2023-07-13T04:24:04;14.00;1.00
14401;DHT22;7285;50.894;5.462;2023-07-13T04:26:33;14.00;1.00
14401;DHT22;7285;50.894;5.462;2023-07-13T04:29:01;14.10;1.00
14401;DHT22;7285;50.894;5.462;2023-07-13T04:31:29;14.10;1.00
14401;DHT22;7285;50.894;5.462;2023-07-13T04:33:57;14.20;1.00
14401;DHT22;7285;50.894;5.462;2023-07-13T04:36:24;14.30;1.00
14401;DHT22;7285;50.894;5.462;2023-07-13T04:38:52;14.30;1.00
14401;DHT22;7285;50.894;5.462;2023-07-13T04:41:21;14.40;1.00
14401;DHT22;7285;50.894;5.462;2023-07-13T04:43:49;14.40;1.00
14401;DHT22;7285;50.894;5.462;2023-07-13T04:46:19;14.50;1.00
14401;DHT22;7285;50.894;5.462;2023-07-13T04:48:48;14.50;99.90
14401;DHT22;7285;50.894;5.462;2023-07-13T04:51:16;14.60;1.00
14401;DHT22;7285;50.894;5.462;2023-07-13T04:53:44;14.70;99.90
14401;DHT22;7285;50.894;5.462;2023-07-13T04:56:30;14.70;43.70
14401;DHT22;7285;50.894;5.462;2023-07-13T04:58:58;14.80;6.10
14401;DHT22;7285;50.894;5.462;2023-07-13T05:01:25;14.90;1.00
14401;DHT22;7285;50.894;5.462;2023-07-13T05:03:54;15.00;1.00
14401;DHT22;7285;50.894;5.462;2023-07-13T05:06:45;15.10;1.00
14401;DHT22;7285;50.894;5.462;2023-07-13T05:09:13;15.10;1.00
14401;DHT22;7285;50.894;5.462;2023-07-13T05:11:40;15.20;1.00
14401;DHT22;7285;50.894;5.462;2023-07-13T05:14:12;15.30;99.90
14401;DHT22;7285;50.894;5.462;2023-07-13T05:16:39;15.30;99.90
14401;DHT22;7285;50.894;5.462;2023-07-13T05:19:07;15.40;99.90
14401;DHT22;7285;50.894;5.462;2023-07-13T05:21:34;15.40;99.90
14401;DHT22;7285;50.894;5.462;2023-07-13T05:24:01;15.50;99.90
14401;DHT22;7285;50.894;5.462;2023-07-13T05:26:29;15.50;99.90
14401;DHT22;7285;50.894;5.462;2023-07-13T05:28:59;15.50;1.00
14401;DHT22;7285;50.894;5.462;2023-07-13T05:31:33;15.50;35.70
14401;DHT22;7285;50.894;5.462;2023-07-13T05:34:17;15.60;99.90
14401;DHT22;7285;50.894;5.462;2023-07-13T05:36:44;15.70;99.90
14401;DHT22;7285;50.894;5.462;2023-07-13T05:39:11;15.70;1.00
14401;DHT22;7285;50.894;5.462;2023-07-13T05:41:39;15.70;1.00
14401;DHT22;7285;50.894;5.462;2023-07-13T05:44:06;15.80;1.00
14401;DHT22;7285;50.894;5.462;2023-07-13T05:46:44;15.80;1.00
14401;DHT22;7285;50.894;5.462;2023-07-13T05:49:12;15.90;1.00
14401;DHT22;7285;50.894;5.462;2023-07-13T05:51:39;15.90;1.00
14401;DHT22;7285;50.894;5.462;2023-07-13T05:54:13;16.00;1.00
14401;DHT22;7285;50.894;5.462;2023-07-13T05:56:41;16.00;1.00
14401;DHT22;7285;50.894;5.462;2023-07-13T05:59:10;16.20;1.00
14401;DHT22;7285;50.894;5.462;2023-07-13T06:01:37;16.10;1.00
14401;DHT22;7285;50.894;5.462;2023-07-13T06:04:05;16.20;1.00
14401;DHT22;7285;50.894;5.462;2023-07-13T06:06:40;16.30;1.00
14401;DHT22;7285;50.894;5.462;2023-07-13T06:09:10;16.30;1.00
14401;DHT22;7285;50.894;5.462;2023-07-13T06:11:38;16.40;1.00
14401;DHT22;7285;50.894;5.462;2023-07-13T06:14:05;16.50;1.00
14401;DHT22;7285;50.894;5.462;2023-07-13T06:16:32;16.50;99.90
14401;DHT22;7285;50.894;5.462;2023-07-13T06:19:06;16.50;99.90
14401;DHT22;7285;50.894;5.462;2023-07-13T06:21:45;16.50;99.90
14401;DHT22;7285;50.894;5.462;2023-07-13T06:24:13;16.60;99.90
14401;DHT22;7285;50.894;5.462;2023-07-13T06:26:40;16.60;99.90
14401;DHT22;7285;50.894;5.462;2023-07-13T06:29:07;16.70;99.90
14401;DHT22;7285;50.894;5.462;2023-07-13T06:31:41;16.70;99.90
14401;DHT22;7285;50.894;5.462;2023-07-13T06:34:11;16.80;99.90
14401;DHT22;7285;50.894;5.462;2023-07-13T06:36:38;16.90;99.90
14401;DHT22;7285;50.894;5.462;2023-07-13T06:39:06;17.00;99.90
14401;DHT22;7285;50.894;5.462;2023-07-13T06:41:34;17.00;1.00
14401;DHT22;7285;50.894;5.462;2023-07-13T06:44:01;17.00;1.00
14401;DHT22;7285;50.894;5.462;2023-07-13T06:46:29;17.00;1.00
14401;DHT22;7285;50.894;5.462;2023-07-13T06:48:56;17.10;1.00
14401;DHT22;7285;50.894;5.462;2023-07-13T06:51:25;17.30;1.00
14401;DHT22;7285;50.894;5.462;2023-07-13T06:53:52;17.40;1.00
14401;DHT22;7285;50.894;5.462;2023-07-13T06:56:20;17.40;1.00
14401;DHT22;7285;50.894;5.462;2023-07-13T06:58:47;17.50;1.00
14401;DHT22;7285;50.894;5.462;2023-07-13T07:01:14;17.50;1.00
14401;DHT22;7285;50.894;5.462;2023-07-13T07:03:41;17.40;1.00
14401;DHT22;7285;50.894;5.462;2023-07-13T07:06:13;17.50;1.00
14401;DHT22;7285;50.894;5.462;2023-07-13T07:08:43;17.50;1.00
14401;DHT22;7285;50.894;5.462;2023-07-13T07:11:28;17.50;99.90
14401;DHT22;7285;50.894;5.462;2023-07-13T07:13:55;17.50;1.00
14401;DHT22;7285;50.894;5.462;2023-07-13T07:16:24;17.50;1.00
14401;DHT22;7285;50.894;5.462;2023-07-13T07:18:51;17.50;1.00
14401;DHT22;7285;50.894;5.462;2023-07-13T07:21:21;17.60;99.90
14401;DHT22;7285;50.894;5.462;2023-07-13T07:26:45;17.60;99.90
14401;DHT22;7285;50.894;5.462;2023-07-13T07:29:34;17.70;99.90
14401;DHT22;7285;50.894;5.462;2023-07-13T07:32:08;17.70;99.90
14401;DHT22;7285;50.894;5.462;2023-07-13T07:34:53;17.80;99.90
14401;DHT22;7285;50.894;5.462;2023-07-13T07:37:21;17.90;99.90
14401;DHT22;7285;50.894;5.462;2023-07-13T07:39:48;18.00;99.90
14401;DHT22;7285;50.894;5.462;2023-07-13T07:42:35;18.20;99.90
14401;DHT22;7285;50.894;5.462;2023-07-13T07:45:03;18.30;99.90
14401;DHT22;7285;50.894;5.462;2023-07-13T07:47:30;18.40;98.70
14401;DHT22;7285;50.894;5.462;2023-07-13T07:49:57;18.50;67.20
14401;DHT22;7285;50.894;5.462;2023-07-13T07:52:24;18.60;1.00
14401;DHT22;7285;50.894;5.462;2023-07-13T07:54:52;18.70;1.00
14401;DHT22;7285;50.894;5.462;2023-07-13T07:57:20;18.80;1.00
14401;DHT22;7285;50.894;5.462;2023-07-13T07:59:48;19.00;1.00
14401;DHT22;7285;50.894;5.462;2023-07-13T08:02:15;19.00;1.00
14401;DHT22;7285;50.894;5.462;2023-07-13T08:04:42;18.90;1.00
14401;DHT22;7285;50.894;5.462;2023-07-13T08:07:10;19.00;1.00
14401;DHT22;7285;50.894;5.462;2023-07-13T08:09:37;19.10;1.00
14401;DHT22;7285;50.894;5.462;2023-07-13T08:12:05;19.10;1.00
14401;DHT22;7285;50.894;5.462;2023-07-13T08:14:35;19.10;1.00
14401;DHT22;7285;50.894;5.462;2023-07-13T08:17:05;19.30;1.00
14401;DHT22;7285;50.894;5.462;2023-07-13T08:19:43;19.30;1.00
14401;DHT22;7285;50.894;5.462;2023-07-13T08:22:10;19.50;1.00
14401;DHT22;7285;50.894;5.462;2023-07-13T08:24:38;19.60;1.00
14401;DHT22;7285;50.894;5.462;2023-07-13T08:27:05;19.70;1.00
14401;DHT22;7285;50.894;5.462;2023-07-13T08:29:32;19.80;1.00
14401;DHT22;7285;50.894;5.462;2023-07-13T08:32:00;19.80;1.00
14401;DHT22;7285;50.894;5.462;2023-07-13T08:34:28;19.90;99.90
14401;DHT22;7285;50.894;5.462;2023-07-13T08:36:55;20.00;99.90
14401;DHT22;7285;50.894;5.462;2023-07-13T08:39:33;19.90;99.90
14401;DHT22;7285;50.894;5.462;2023-07-13T08:42:03;20.00;99.90
14401;DHT22;7285;50.894;5.462;2023-07-13T08:44:38;20.00;99.90
14401;DHT22;7285;50.894;5.462;2023-07-13T08:47:09;20.00;99.90
14401;DHT22;7285;50.894;5.462;2023-07-13T08:49:38;20.10;99.90
14401;DHT22;7285;50.894;5.462;2023-07-13T08:52:11;20.10;99.90
14401;DHT22;7285;50.894;5.462;2023-07-13T08:54:45;20.10;99.90
14401;DHT22;7285;50.894;5.462;2023-07-13T08:57:14;20.20;99.90
14401;DHT22;7285;50.894;5.462;2023-07-13T08:59:42;20.10;99.90
14401;DHT22;7285;50.894;5.462;2023-07-13T09:02:20;20.10;99.90
14401;DHT22;7285;50.894;5.462;2023-07-13T09:04:59;20.20;99.90
14401;DHT22;7285;50.894;5.462;2023-07-13T09:07:41;20.30;99.90
14401;DHT22;7285;50.894;5.462;2023-07-13T09:10:15;20.30;99.90
14401;DHT22;7285;50.894;5.462;2023-07-13T09:12:51;20.50;99.90
14401;DHT22;7285;50.894;5.462;2023-07-13T09:15:30;20.50;42.60
14401;DHT22;7285;50.894;5.462;2023-07-13T09:18:02;20.40;16.30
14401;DHT22;7285;50.894;5.462;2023-07-13T09:20:34;20.40;1.00
14401;DHT22;7285;50.894;5.462;2023-07-13T09:23:05;20.60;3.30
14401;DHT22;7285;50.894;5.462;2023-07-13T09:25:35;20.60;1.00
14401;DHT22;7285;50.894;5.462;2023-07-13T09:28:10;20.50;1.00
14401;DHT22;7285;50.894;5.462;2023-07-13T09:30:42;20.60;1.00
14401;DHT22;7285;50.894;5.462;2023-07-13T09:33:11;20.60;1.00
14401;DHT22;7285;50.894;5.462;2023-07-13T09:35:39;20.60;1.00
14401;DHT22;7285;50.894;5.462;2023-07-13T09:38:12;20.70;1.00
14401;DHT22;7285;50.894;5.462;2023-07-13T09:40:51;20.70;1.00
14401;DHT22;7285;50.894;5.462;2023-07-13T09:43:20;20.90;1.00
14401;DHT22;7285;50.894;5.462;2023-07-13T09:45:48;21.00;1.00
14401;DHT22;7285;50.894;5.462;2023-07-13T09:48:17;21.20;1.00
14401;DHT22;7285;50.894;5.462;2023-07-13T09:50:46;21.30;1.00
14401;DHT22;7285;50.894;5.462;2023-07-13T09:53:15;21.40;1.00
14401;DHT22;7285;50.894;5.462;2023-07-13T09:55:44;21.60;1.00
14401;DHT22;7285;50.894;5.462;2023-07-13T09:58:13;21.60;1.00
14401;DHT22;7285;50.894;5.462;2023-07-13T10:00:42;22.00;1.00
14401;DHT22;7285;50.894;5.462;2023-07-13T10:03:17;22.30;1.00
14401;DHT22;7285;50.894;5.462;2023-07-13T10:05:49;22.20;1.00
14401;DHT22;7285;50.894;5.462;2023-07-13T10:08:18;21.90;1.00
14401;DHT22;7285;50.894;5.462;2023-07-13T10:10:46;21.90;1.00
14401;DHT22;7285;50.894;5.462;2023-07-13T10:13:32;21.70;1.00
14401;DHT22;7285;50.894;5.462;2023-07-13T10:16:03;22.00;1.00
14401;DHT22;7285;50.894;5.462;2023-07-13T10:18:38;22.80;1.00
14401;DHT22;7285;50.894;5.462;2023-07-13T10:21:15;23.20;1.00
14401;DHT22;7285;50.894;5.462;2023-07-13T10:23:45;22.70;1.00
14401;DHT22;7285;50.894;5.462;2023-07-13T10:26:18;22.70;1.00
14401;DHT22;7285;50.894;5.462;2023-07-13T10:28:51;22.50;1.00
14401;DHT22;7285;50.894;5.462;2023-07-13T10:31:21;22.00;1.00
14401;DHT22;7285;50.894;5.462;2023-07-13T10:33:49;22.20;1.00
14401;DHT22;7285;50.894;5.462;2023-07-13T10:36:31;23.00;1.00
14401;DHT22;7285;50.894;5.462;2023-07-13T10:39:02;23.40;1.00
14401;DHT22;7285;50.894;5.462;2023-07-13T10:41:34;23.40;1.00
14401;DHT22;7285;50.894;5.462;2023-07-13T10:44:03;23.70;1.00
14401;DHT22;7285;50.894;5.462;2023-07-13T10:46:31;23.20;1.00
14401;DHT22;7285;50.894;5.462;2023-07-13T10:49:01;24.00;1.00
14401;DHT22;7285;50.894;5.462;2023-07-13T10:51:31;24.10;1.00
14401;DHT22;7285;50.894;5.462;2023-07-13T10:54:15;23.60;1.00
14401;DHT22;7285;50.894;5.462;2023-07-13T10:56:43;23.90;1.00
14401;DHT22;7285;50.894;5.462;2023-07-13T10:59:15;23.90;1.00
14401;DHT22;7285;50.894;5.462;2023-07-13T11:01:55;23.60;1.00
14401;DHT22;7285;50.894;5.462;2023-07-13T11:04:23;23.40;1.00
14401;DHT22;7285;50.894;5.462;2023-07-13T11:06:57;23.20;1.00
14401;DHT22;7285;50.894;5.462;2023-07-13T11:09:34;22.80;1.00
14401;DHT22;7285;50.894;5.462;2023-07-13T11:12:07;22.90;1.00
14401;DHT22;7285;50.894;5.462;2023-07-13T11:14:36;22.90;1.00
14401;DHT22;7285;50.894;5.462;2023-07-13T11:17:36;23.40;1.00
14401;DHT22;7285;50.894;5.462;2023-07-13T11:23:27;22.80;99.90
14401;DHT22;7285;50.894;5.462;2023-07-13T11:25:55;23.10;99.90
14401;DHT22;7285;50.894;5.462;2023-07-13T11:28:25;23.60;99.90
14401;DHT22;7285;50.894;5.462;2023-07-13T11:31:13;23.50;99.90
14401;DHT22;7285;50.894;5.462;2023-07-13T11:34:06;22.90;99.90
14401;DHT22;7285;50.894;5.462;2023-07-13T11:36:47;22.50;99.90
14401;DHT22;7285;50.894;5.462;2023-07-13T11:39:27;22.10;99.90
14401;DHT22;7285;50.894;5.462;2023-07-13T11:41:57;22.00;99.90
14401;DHT22;7285;50.894;5.462;2023-07-13T11:44:27;22.30;99.90
14401;DHT22;7285;50.894;5.462;2023-07-13T11:46:56;23.00;99.90
14401;DHT22;7285;50.894;5.462;2023-07-13T11:49:28;23.60;99.90
14401;DHT22;7285;50.894;5.462;2023-07-13T11:51:56;23.90;99.90
14401;DHT22;7285;50.894;5.462;2023-07-13T11:54:27;24.20;99.90
14401;DHT22;7285;50.894;5.462;2023-07-13T11:56:57;24.20;99.90
14401;DHT22;7285;50.894;5.462;2023-07-13T11:59:26;23.90;99.90
14401;DHT22;7285;50.894;5.462;2023-07-13T12:01:55;24.50;99.90
14401;DHT22;7285;50.894;5.462;2023-07-13T12:04:25;25.00;99.90
14401;DHT22;7285;50.894;5.462;2023-07-13T12:06:56;25.30;99.90
14401;DHT22;7285;50.894;5.462;2023-07-13T12:09:27;25.30;99.90
14401;DHT22;7285;50.894;5.462;2023-07-13T12:11:57;24.50;99.90
14401;DHT22;7285;50.894;5.462;2023-07-13T12:14:27;24.20;99.90
14401;DHT22;7285;50.894;5.462;2023-07-13T12:16:55;24.30;99.90
14401;DHT22;7285;50.894;5.462;2023-07-13T12:19:25;24.40;99.90
14401;DHT22;7285;50.894;5.462;2023-07-13T12:21:57;24.50;99.90
14401;DHT22;7285;50.894;5.462;2023-07-13T12:24:26;24.40;99.90
14401;DHT22;7285;50.894;5.462;2023-07-13T12:26:58;24.60;99.90
14401;DHT22;7285;50.894;5.462;2023-07-13T12:29:27;24.30;99.90
14401;DHT22;7285;50.894;5.462;2023-07-13T12:31:54;24.30;99.90
14401;DHT22;7285;50.894;5.462;2023-07-13T12:34:28;24.30;99.90
14401;DHT22;7285;50.894;5.462;2023-07-13T12:36:58;25.00;99.90
14401;DHT22;7285;50.894;5.462;2023-07-13T12:39:34;25.20;99.90
14401;DHT22;7285;50.894;5.462;2023-07-13T12:42:19;25.70;99.90
14401;DHT22;7285;50.894;5.462;2023-07-13T12:44:49;25.80;99.90
14401;DHT22;7285;50.894;5.462;2023-07-13T12:47:23;25.40;99.90
14401;DHT22;7285;50.894;5.462;2023-07-13T12:49:53;25.20;99.90
14401;DHT22;7285;50.894;5.462;2023-07-13T12:52:22;25.10;99.90
14401;DHT22;7285;50.894;5.462;2023-07-13T12:54:55;25.30;99.90
14401;DHT22;7285;50.894;5.462;2023-07-13T12:57:29;25.30;99.90
14401;DHT22;7285;50.894;5.462;2023-07-13T12:59:57;25.00;99.90
14401;DHT22;7285;50.894;5.462;2023-07-13T13:02:33;24.70;99.90
14401;DHT22;7285;50.894;5.462;2023-07-13T13:05:02;24.90;99.90
14401;DHT22;7285;50.894;5.462;2023-07-13T13:07:31;24.50;99.90
14401;DHT22;7285;50.894;5.462;2023-07-13T13:10:11;24.10;99.90
14401;DHT22;7285;50.894;5.462;2023-07-13T13:12:52;23.70;99.90
14401;DHT22;7285;50.894;5.462;2023-07-13T13:15:25;23.60;99.90
14401;DHT22;7285;50.894;5.462;2023-07-13T13:18:08;23.60;99.90
14401;DHT22;7285;50.894;5.462;2023-07-13T13:20:37;23.50;99.90
14401;DHT22;7285;50.894;5.462;2023-07-13T13:23:07;23.50;99.90
14401;DHT22;7285;50.894;5.462;2023-07-13T13:25:38;23.40;99.90
14401;DHT22;7285;50.894;5.462;2023-07-13T13:28:08;23.40;99.90
14401;DHT22;7285;50.894;5.462;2023-07-13T13:30:39;23.40;99.90
14401;DHT22;7285;50.894;5.462;2023-07-13T13:33:09;23.40;99.90
14401;DHT22;7285;50.894;5.462;2023-07-13T13:35:38;23.30;99.90
14401;DHT22;7285;50.894;5.462;2023-07-13T13:38:10;23.00;99.90
14401;DHT22;7285;50.894;5.462;2023-07-13T13:40:41;23.00;99.90
14401;DHT22;7285;50.894;5.462;2023-07-13T13:43:14;23.00;99.90
14401;DHT22;7285;50.894;5.462;2023-07-13T13:45:42;22.90;99.90
14401;DHT22;7285;50.894;5.462;2023-07-13T13:48:14;22.80;99.90
14401;DHT22;7285;50.894;5.462;2023-07-13T13:50:42;22.50;99.90
14401;DHT22;7285;50.894;5.462;2023-07-13T13:53:10;22.10;99.90
14401;DHT22;7285;50.894;5.462;2023-07-13T13:55:38;21.80;99.90
14401;DHT22;7285;50.894;5.462;2023-07-13T13:58:09;21.90;99.90
14401;DHT22;7285;50.894;5.462;2023-07-13T14:00:37;21.50;99.90
14401;DHT22;7285;50.894;5.462;2023-07-13T14:03:04;21.30;99.90
14401;DHT22;7285;50.894;5.462;2023-07-13T14:05:32;20.70;99.90
14401;DHT22;7285;50.894;5.462;2023-07-13T14:07:59;20.40;99.90
14401;DHT22;7285;50.894;5.462;2023-07-13T14:10:27;20.30;99.90
14401;DHT22;7285;50.894;5.462;2023-07-13T14:12:56;20.20;99.90
14401;DHT22;7285;50.894;5.462;2023-07-13T14:15:27;20.10;99.90
14401;DHT22;7285;50.894;5.462;2023-07-13T14:17:56;20.00;99.90
14401;DHT22;7285;50.894;5.462;2023-07-13T14:20:24;20.00;99.90
14401;DHT22;7285;50.894;5.462;2023-07-13T14:22:52;19.90;1.00
14401;DHT22;7285;50.894;5.462;2023-07-13T14:25:21;19.90;1.00
14401;DHT22;7285;50.894;5.462;2023-07-13T14:27:51;19.90;1.00
14401;DHT22;7285;50.894;5.462;2023-07-13T14:30:22;20.00;1.00
14401;DHT22;7285;50.894;5.462;2023-07-13T14:32:51;20.00;1.00
14401;DHT22;7285;50.894;5.462;2023-07-13T14:35:21;20.20;1.00
14401;DHT22;7285;50.894;5.462;2023-07-13T14:37:49;20.40;1.00
14401;DHT22;7285;50.894;5.462;2023-07-13T14:40:17;20.60;1.00
14401;DHT22;7285;50.894;5.462;2023-07-13T14:42:46;20.60;1.00
14401;DHT22;7285;50.894;5.462;2023-07-13T14:45:14;20.70;1.00
14401;DHT22;7285;50.894;5.462;2023-07-13T14:47:42;20.70;1.00
14401;DHT22;7285;50.894;5.462;2023-07-13T14:50:15;20.70;1.00
14401;DHT22;7285;50.894;5.462;2023-07-13T14:52:43;20.80;1.00
14401;DHT22;7285;50.894;5.462;2023-07-13T14:55:11;21.10;1.00
14401;DHT22;7285;50.894;5.462;2023-07-13T14:57:38;21.90;1.00
14401;DHT22;7285;50.894;5.462;2023-07-13T15:00:13;22.30;1.00
14401;DHT22;7285;50.894;5.462;2023-07-13T15:02:42;22.50;1.00
14401;DHT22;7285;50.894;5.462;2023-07-13T15:05:19;22.40;1.00
14401;DHT22;7285;50.894;5.462;2023-07-13T15:07:47;22.40;1.00
14401;DHT22;7285;50.894;5.462;2023-07-13T15:10:17;22.50;99.90
14401;DHT22;7285;50.894;5.462;2023-07-13T15:12:44;22.40;1.00
14401;DHT22;7285;50.894;5.462;2023-07-13T15:15:12;22.90;1.00
14401;DHT22;7285;50.894;5.462;2023-07-13T15:17:40;23.10;99.90
14401;DHT22;7285;50.894;5.462;2023-07-13T15:20:18;23.30;99.90
14401;DHT22;7285;50.894;5.462;2023-07-13T15:22:46;22.90;99.90
14401;DHT22;7285;50.894;5.462;2023-07-13T15:25:17;22.80;99.90
14401;DHT22;7285;50.894;5.462;2023-07-13T15:27:44;22.70;99.90
14401;DHT22;7285;50.894;5.462;2023-07-13T15:30:12;22.70;99.90
14401;DHT22;7285;50.894;5.462;2023-07-13T15:32:40;22.80;99.90
14401;DHT22;7285;50.894;5.462;2023-07-13T15:35:14;23.30;99.90
14401;DHT22;7285;50.894;5.462;2023-07-13T15:37:43;23.70;99.90
14401;DHT22;7285;50.894;5.462;2023-07-13T15:40:11;24.40;99.90
14401;DHT22;7285;50.894;5.462;2023-07-13T15:42:39;24.50;99.90
14401;DHT22;7285;50.894;5.462;2023-07-13T15:45:18;25.10;99.90
14401;DHT22;7285;50.894;5.462;2023-07-13T15:47:46;25.00;99.90
14401;DHT22;7285;50.894;5.462;2023-07-13T15:50:14;25.10;99.90
14401;DHT22;7285;50.894;5.462;2023-07-13T15:52:45;25.10;99.90
14401;DHT22;7285;50.894;5.462;2023-07-13T15:55:14;25.40;99.90
14401;DHT22;7285;50.894;5.462;2023-07-13T15:57:44;25.70;99.90
14401;DHT22;7285;50.894;5.462;2023-07-13T16:00:18;25.30;99.90
14401;DHT22;7285;50.894;5.462;2023-07-13T16:02:47;25.30;99.90
14401;DHT22;7285;50.894;5.462;2023-07-13T16:05:15;25.10;99.90
14401;DHT22;7285;50.894;5.462;2023-07-13T16:07:45;25.40;99.90
14401;DHT22;7285;50.894;5.462;2023-07-13T16:10:17;25.90;99.90
14401;DHT22;7285;50.894;5.462;2023-07-13T16:12:44;25.80;99.90
14401;DHT22;7285;50.894;5.462;2023-07-13T16:15:18;25.20;99.90
14401;DHT22;7285;50.894;5.462;2023-07-13T16:17:46;25.30;99.90
14401;DHT22;7285;50.894;5.462;2023-07-13T16:20:15;25.40;99.90
14401;DHT22;7285;50.894;5.462;2023-07-13T16:22:45;25.00;99.90
14401;DHT22;7285;50.894;5.462;2023-07-13T16:25:14;24.30;99.90
14401;DHT22;7285;50.894;5.462;2023-07-13T16:27:44;23.90;99.90
14401;DHT22;7285;50.894;5.462;2023-07-13T16:30:13;23.70;99.90
14401;DHT22;7285;50.894;5.462;2023-07-13T16:32:41;23.50;99.90